createdAt,value
2017-11-14T00:00:15.501Z,3.50
2017-11-14T00:02:43.993Z,3.50
2017-11-14T00:05:10.005Z,3.40
2017-11-14T00:07:36.009Z,3.60
2017-11-14T00:10:02.030Z,3.50
2017-11-14T00:12:28.021Z,3.50
2017-11-14T00:14:54.536Z,3.40
2017-11-14T00:17:20.512Z,3.40
2017-11-14T00:19:46.457Z,3.40
2017-11-14T00:22:13.144Z,3.50
2017-11-14T00:24:39.199Z,3.40
2017-11-14T00:27:05.120Z,3.50
2017-11-14T00:29:31.069Z,3.50
2017-11-14T00:31:57.730Z,3.30
2017-11-14T00:34:23.952Z,3.30
2017-11-14T00:36:50.009Z,3.30
2017-11-14T00:39:15.990Z,3.30
2017-11-14T00:41:42.003Z,3.30
2017-11-14T00:44:08.756Z,3.30
2017-11-14T00:46:35.059Z,3.30
2017-11-14T00:49:01.801Z,3.50
2017-11-14T00:51:28.505Z,3.60
2017-11-14T00:53:54.520Z,3.60
2017-11-14T00:56:20.475Z,3.50
2017-11-14T00:58:46.412Z,3.50
2017-11-14T01:01:13.151Z,3.60
2017-11-14T01:03:39.807Z,3.50
2017-11-14T01:06:06.750Z,3.50
2017-11-14T01:08:32.744Z,3.50
2017-11-14T01:10:59.434Z,3.50
2017-11-14T01:13:25.428Z,3.40
2017-11-14T01:15:51.379Z,3.40
2017-11-14T01:18:17.350Z,3.50
2017-11-14T01:20:43.284Z,3.60
2017-11-14T01:23:09.294Z,3.60
2017-11-14T01:25:35.987Z,3.60
2017-11-14T01:28:01.932Z,3.50
2017-11-14T01:30:27.917Z,3.70
2017-11-14T01:32:53.884Z,3.60
2017-11-14T01:35:19.919Z,3.60
2017-11-14T01:37:46.605Z,3.80
2017-11-14T01:40:12.614Z,3.70
2017-11-14T01:42:38.607Z,3.70
2017-11-14T01:45:06.065Z,3.60
2017-11-14T01:47:32.834Z,3.60
2017-11-14T01:49:59.541Z,3.60
2017-11-14T01:52:25.572Z,3.50
2017-11-14T01:54:51.537Z,3.60
2017-11-14T01:57:17.512Z,3.60
2017-11-14T01:59:44.272Z,3.60
2017-11-14T02:02:10.303Z,3.60
2017-11-14T02:04:36.265Z,3.60
2017-11-14T02:07:02.245Z,3.60
2017-11-14T02:09:28.212Z,3.70
2017-11-14T02:11:54.168Z,3.70
2017-11-14T02:14:20.119Z,3.70
2017-11-14T02:16:46.072Z,3.70
2017-11-14T02:19:12.064Z,3.70
2017-11-14T02:21:38.028Z,3.70
2017-11-14T02:24:03.980Z,3.50
2017-11-14T02:26:29.939Z,3.50
2017-11-14T02:28:55.927Z,3.40
2017-11-14T02:31:22.696Z,3.30
2017-11-14T02:33:48.719Z,3.20
2017-11-14T02:36:15.500Z,3.30
2017-11-14T02:38:41.525Z,3.40
2017-11-14T02:41:08.202Z,3.30
2017-11-14T02:43:34.181Z,3.20
2017-11-14T02:46:00.104Z,3.20
2017-11-14T02:48:26.030Z,3.20
2017-11-14T02:50:51.941Z,3.20
2017-11-14T02:53:17.868Z,3.10
2017-11-14T02:55:43.837Z,3.00
2017-11-14T02:58:10.533Z,2.90
2017-11-14T03:00:36.484Z,2.80
2017-11-14T03:03:02.458Z,2.80
2017-11-14T03:05:28.443Z,2.80
2017-11-14T03:07:54.409Z,2.90
2017-11-14T03:10:20.356Z,3.00
2017-11-14T03:12:46.274Z,3.10
2017-11-14T03:15:12.265Z,3.20
2017-11-14T03:17:38.211Z,3.20
2017-11-14T03:20:04.211Z,3.20
2017-11-14T03:22:30.212Z,3.10
2017-11-14T03:24:56.241Z,3.00
2017-11-14T03:27:22.192Z,3.00
2017-11-14T03:29:48.219Z,3.00
2017-11-14T03:32:14.152Z,3.10
2017-11-14T03:34:40.072Z,3.10
2017-11-14T03:37:06.025Z,3.10
2017-11-14T03:39:31.969Z,3.10
2017-11-14T03:41:57.907Z,3.00
2017-11-14T03:44:24.647Z,3.00
2017-11-14T03:46:50.610Z,2.90
2017-11-14T03:49:16.613Z,2.90
2017-11-14T03:51:42.725Z,2.80
2017-11-14T03:54:08.767Z,2.80
2017-11-14T03:56:34.760Z,2.90
2017-11-14T03:59:01.442Z,2.90
2017-11-14T04:01:28.140Z,2.90
2017-11-14T04:03:54.080Z,2.90
2017-11-14T04:06:20.014Z,2.90
2017-11-14T04:08:46.005Z,2.90
2017-11-14T04:11:12.717Z,2.60
2017-11-14T04:13:39.484Z,2.50
2017-11-14T04:16:06.223Z,2.30
2017-11-14T04:18:32.469Z,2.20
2017-11-14T04:20:58.477Z,2.10
2017-11-14T04:23:24.442Z,2.20
2017-11-14T04:25:51.140Z,2.60
2017-11-14T04:28:17.075Z,2.50
2017-11-14T04:30:43.030Z,2.60
2017-11-14T04:33:08.954Z,2.70
2017-11-14T04:35:34.937Z,2.70
2017-11-14T04:38:00.843Z,2.80
2017-11-14T04:40:26.804Z,2.70
2017-11-14T04:42:52.728Z,3.00
2017-11-14T04:45:18.682Z,2.90
2017-11-14T04:47:44.766Z,2.70
2017-11-14T04:50:10.781Z,2.80
2017-11-14T04:52:36.886Z,2.70
2017-11-14T04:55:02.862Z,2.70
2017-11-14T04:57:28.832Z,2.60
2017-11-14T04:59:54.827Z,2.60
2017-11-14T05:02:20.811Z,2.70
2017-11-14T05:04:46.771Z,2.60
2017-11-14T05:07:13.661Z,2.50
2017-11-14T05:09:39.609Z,2.50
2017-11-14T05:12:05.559Z,2.50
2017-11-14T05:14:32.534Z,2.50
2017-11-14T05:16:58.597Z,2.50
2017-11-14T05:19:24.601Z,2.50
2017-11-14T05:21:50.646Z,2.40
2017-11-14T05:24:16.644Z,2.30
2017-11-14T05:26:43.339Z,2.10
2017-11-14T05:29:09.327Z,2.00
2017-11-14T05:31:35.308Z,2.10
2017-11-14T05:34:01.273Z,2.20
2017-11-14T05:36:27.242Z,2.40
2017-11-14T05:38:53.200Z,2.50
2017-11-14T05:41:19.201Z,2.50
2017-11-14T05:43:45.189Z,2.60
2017-11-14T05:46:11.124Z,2.70
2017-11-14T05:48:37.084Z,2.70
2017-11-14T05:51:03.048Z,2.70
2017-11-14T05:53:29.075Z,2.70
2017-11-14T05:55:55.064Z,2.80
2017-11-14T05:58:21.067Z,2.70
2017-11-14T06:00:47.204Z,2.70
2017-11-14T06:03:13.259Z,2.70
2017-11-14T06:05:39.223Z,2.80
2017-11-14T06:08:05.139Z,2.80
2017-11-14T06:10:31.053Z,3.00
2017-11-14T06:12:57.045Z,2.90
2017-11-14T06:15:22.986Z,2.90
2017-11-14T06:17:48.969Z,2.90
2017-11-14T06:20:14.941Z,2.70
2017-11-14T06:22:40.922Z,3.00
2017-11-14T06:25:06.891Z,2.90
2017-11-14T06:27:33.396Z,3.00
2017-11-14T06:29:59.453Z,3.00
2017-11-14T06:32:25.400Z,3.00
2017-11-14T06:34:51.358Z,3.00
2017-11-14T06:37:17.363Z,3.00
2017-11-14T06:39:44.224Z,3.20
2017-11-14T06:42:11.169Z,3.10
2017-11-14T06:44:37.905Z,3.20
2017-11-14T06:47:04.016Z,3.20
2017-11-14T06:49:29.953Z,3.10
2017-11-14T06:51:56.686Z,3.10
2017-11-14T06:54:23.475Z,3.00
2017-11-14T06:56:49.472Z,3.00
2017-11-14T06:59:15.595Z,3.20
2017-11-14T07:01:41.647Z,3.30
2017-11-14T07:04:07.651Z,3.30
2017-11-14T07:06:34.320Z,3.30
2017-11-14T07:09:00.357Z,3.40
2017-11-14T07:11:26.364Z,3.40
2017-11-14T07:13:52.402Z,3.50
2017-11-14T07:16:18.380Z,3.40
2017-11-14T07:18:44.386Z,3.40
2017-11-14T07:21:10.432Z,3.50
2017-11-14T07:23:36.480Z,3.40
2017-11-14T07:26:02.482Z,3.40
2017-11-14T07:28:29.483Z,3.50
2017-11-14T07:30:55.427Z,3.50
2017-11-14T07:33:23.199Z,3.60
2017-11-14T07:35:49.350Z,3.60
2017-11-14T07:38:16.382Z,3.70
2017-11-14T07:40:42.405Z,3.80
2017-11-14T07:43:08.436Z,3.80
2017-11-14T07:45:35.411Z,4.30
2017-11-14T07:48:02.677Z,4.80
2017-11-14T07:50:28.700Z,5.10
2017-11-14T07:52:55.431Z,4.80
2017-11-14T07:55:22.356Z,4.80
2017-11-14T07:57:48.353Z,4.30
2017-11-14T08:00:15.333Z,3.60
2017-11-14T08:02:43.426Z,3.50
2017-11-14T08:05:09.431Z,3.40
2017-11-14T08:07:37.145Z,3.30
2017-11-14T08:12:36.804Z,3.30
2017-11-14T08:27:50.800Z,3.30
2017-11-14T08:32:50.327Z,3.20
2017-11-14T08:37:52.864Z,3.20
2017-11-14T08:40:21.642Z,3.30
2017-11-14T08:42:49.665Z,3.30
2017-11-14T08:45:16.049Z,3.50
2017-11-14T08:47:42.048Z,3.40
2017-11-14T08:50:08.082Z,3.40
2017-11-14T08:52:34.334Z,3.40
2017-11-14T08:55:00.552Z,3.50
2017-11-14T08:57:26.572Z,3.60
2017-11-14T08:59:53.232Z,3.50
2017-11-14T09:02:20.144Z,3.50
2017-11-14T09:04:46.576Z,3.60
2017-11-14T09:07:12.830Z,3.60
2017-11-14T09:09:40.182Z,3.70
2017-11-14T09:12:06.531Z,3.70
2017-11-14T09:14:33.687Z,3.80
2017-11-14T09:17:01.323Z,3.80
2017-11-14T09:19:28.358Z,3.90
2017-11-14T09:21:55.516Z,4.00
2017-11-14T09:24:21.582Z,4.10
2017-11-14T09:26:47.961Z,4.30
2017-11-14T09:29:14.727Z,4.40
2017-11-14T09:31:40.714Z,4.40
2017-11-14T09:34:10.469Z,4.40
2017-11-14T09:36:37.572Z,4.40
2017-11-14T09:39:03.677Z,4.40
2017-11-14T09:41:30.730Z,4.30
2017-11-14T09:43:56.757Z,4.30
2017-11-14T09:46:22.991Z,4.40
2017-11-14T09:48:49.172Z,4.40
2017-11-14T09:51:15.112Z,4.50
2017-11-14T09:53:41.976Z,4.50
2017-11-14T09:56:08.092Z,4.50
2017-11-14T09:58:34.337Z,4.40
2017-11-14T10:01:01.053Z,4.60
2017-11-14T10:03:26.993Z,4.60
2017-11-14T10:05:52.996Z,4.70
2017-11-14T10:08:19.027Z,5.00
2017-11-14T10:10:44.995Z,4.90
2017-11-14T10:13:10.981Z,5.10
2017-11-14T10:15:38.596Z,5.20
2017-11-14T10:18:04.559Z,5.30
2017-11-14T10:20:30.625Z,5.30
2017-11-14T10:22:56.618Z,5.50
2017-11-14T10:25:23.379Z,5.90
2017-11-14T10:27:49.368Z,5.80
2017-11-14T10:30:15.529Z,6.00
2017-11-14T10:32:41.492Z,6.20
2017-11-14T10:35:07.556Z,6.40
2017-11-14T10:37:34.296Z,6.60
2017-11-14T10:40:01.144Z,6.50
2017-11-14T10:42:27.093Z,6.50
2017-11-14T10:44:53.066Z,6.70
2017-11-14T10:47:19.095Z,6.70
2017-11-14T10:49:45.200Z,6.90
2017-11-14T10:52:11.285Z,6.90
2017-11-14T10:54:37.770Z,6.80
2017-11-14T10:57:07.825Z,6.90
2017-11-14T10:59:36.778Z,7.10
2017-11-14T11:02:07.734Z,7.10
2017-11-14T11:04:36.131Z,7.20
2017-11-14T11:07:02.848Z,7.30
2017-11-14T11:09:29.990Z,7.50
2017-11-14T11:11:57.935Z,7.30
2017-11-14T11:14:26.436Z,7.50
2017-11-14T11:16:55.640Z,7.10
2017-11-14T11:19:24.381Z,7.00
2017-11-14T11:21:50.789Z,7.10
2017-11-14T11:24:19.596Z,7.30
2017-11-14T11:26:47.866Z,7.30
2017-11-14T11:29:13.901Z,7.20
2017-11-14T11:31:40.008Z,7.10
2017-11-14T11:34:06.036Z,7.30
2017-11-14T11:36:34.833Z,7.20
2017-11-14T11:39:04.617Z,7.10
2017-11-14T11:41:30.684Z,7.20
2017-11-14T11:43:58.146Z,7.10
2017-11-14T11:46:25.103Z,7.30
2017-11-14T11:48:51.285Z,7.30
2017-11-14T11:51:20.280Z,7.30
2017-11-14T11:53:47.909Z,7.40
2017-11-14T11:56:15.798Z,7.40
2017-11-14T11:58:44.182Z,7.40
2017-11-14T12:01:10.324Z,7.60
2017-11-14T12:03:36.400Z,7.70
2017-11-14T12:06:03.517Z,7.70
2017-11-14T12:08:29.541Z,7.70
2017-11-14T12:10:55.606Z,7.80
2017-11-14T12:13:27.870Z,7.80
2017-11-14T12:15:53.918Z,7.80
2017-11-14T12:18:20.363Z,7.80
2017-11-14T12:20:46.357Z,7.80
2017-11-14T12:23:12.409Z,8.10
2017-11-14T12:25:38.437Z,8.30
2017-11-14T12:28:04.961Z,8.40
2017-11-14T12:30:32.345Z,8.60
2017-11-14T12:32:58.321Z,8.80
2017-11-14T12:35:26.868Z,8.80
2017-11-14T12:37:52.976Z,8.90
2017-11-14T12:40:19.000Z,9.20
2017-11-14T12:42:44.996Z,9.30
2017-11-14T12:45:11.666Z,9.70
2017-11-14T12:47:38.375Z,10.10
2017-11-14T12:50:05.686Z,10.00
2017-11-14T12:52:33.118Z,10.20
2017-11-14T12:55:00.354Z,10.20
2017-11-14T12:57:28.693Z,10.40
2017-11-14T12:59:56.128Z,10.70
2017-11-14T13:02:24.525Z,10.70
2017-11-14T13:04:50.607Z,10.70
2017-11-14T13:07:19.009Z,10.80
2017-11-14T13:09:44.976Z,10.70
2017-11-14T13:12:11.028Z,10.80
2017-11-14T13:14:37.283Z,10.70
2017-11-14T13:17:03.281Z,10.50
2017-11-14T13:19:29.333Z,10.70
2017-11-14T13:21:58.113Z,10.90
2017-11-14T13:24:24.305Z,10.90
2017-11-14T13:26:51.305Z,11.30
2017-11-14T13:29:17.514Z,11.60
2017-11-14T13:31:44.001Z,11.70
2017-11-14T13:34:10.087Z,11.80
2017-11-14T13:36:37.288Z,11.70
2017-11-14T13:39:03.711Z,11.30
2017-11-14T13:41:30.926Z,10.90
2017-11-14T13:43:57.930Z,10.60
2017-11-14T13:46:25.553Z,10.10
2017-11-14T13:48:51.813Z,9.70
2017-11-14T13:51:18.598Z,9.50
2017-11-14T13:53:44.603Z,9.50
2017-11-14T13:56:10.569Z,9.50
2017-11-14T13:58:37.175Z,9.50
2017-11-14T14:01:04.592Z,9.30
2017-11-14T14:03:30.611Z,9.20
2017-11-14T14:05:57.681Z,9.20
2017-11-14T14:08:23.682Z,9.00
2017-11-14T14:10:50.597Z,9.00
2017-11-14T14:13:16.570Z,9.00
2017-11-14T14:15:42.557Z,9.20
2017-11-14T14:18:11.275Z,9.30
2017-11-14T14:20:38.021Z,9.30
2017-11-14T14:23:04.212Z,9.30
2017-11-14T14:25:30.944Z,9.30
2017-11-14T14:27:58.580Z,9.50
2017-11-14T14:30:24.706Z,9.60
2017-11-14T14:32:51.675Z,9.70
2017-11-14T14:35:17.640Z,9.60
2017-11-14T14:37:43.604Z,9.60
2017-11-14T14:40:09.791Z,9.50
2017-11-14T14:42:37.684Z,9.40
2017-11-14T14:45:03.816Z,9.40
2017-11-14T14:47:30.016Z,9.50
2017-11-14T14:49:56.126Z,9.60
2017-11-14T14:52:22.087Z,9.40
2017-11-14T14:54:48.091Z,9.40
2017-11-14T14:57:17.620Z,9.40
2017-11-14T14:59:44.516Z,9.50
2017-11-14T15:02:11.969Z,9.40
2017-11-14T15:04:42.125Z,9.30
2017-11-14T15:07:08.391Z,9.30
2017-11-14T15:09:35.823Z,9.10
2017-11-14T15:12:02.475Z,9.00
2017-11-14T15:14:28.552Z,9.00
2017-11-14T15:16:54.688Z,8.80
2017-11-14T15:19:21.217Z,8.80
2017-11-14T15:21:47.436Z,8.80
2017-11-14T15:24:15.420Z,8.80
2017-11-14T15:26:41.906Z,8.70
2017-11-14T15:29:08.661Z,8.60
2017-11-14T15:31:35.537Z,8.60
2017-11-14T15:34:02.618Z,8.60
2017-11-14T15:36:29.126Z,8.50
2017-11-14T15:38:55.215Z,8.40
2017-11-14T15:41:21.186Z,8.40
2017-11-14T15:43:47.193Z,8.30
2017-11-14T15:46:13.124Z,8.30
2017-11-14T15:48:39.077Z,8.20
2017-11-14T15:51:05.072Z,8.20
2017-11-14T15:53:31.610Z,8.10
2017-11-14T15:55:57.638Z,8.10
2017-11-14T15:58:24.480Z,8.00
2017-11-14T16:00:51.786Z,7.90
2017-11-14T16:03:18.977Z,7.90
2017-11-14T16:05:45.994Z,7.80
2017-11-14T16:08:12.683Z,7.80
2017-11-14T16:10:39.874Z,7.70
2017-11-14T16:13:05.830Z,7.70
2017-11-14T16:15:31.825Z,7.70
2017-11-14T16:17:58.808Z,7.60
2017-11-14T16:20:24.933Z,7.60
2017-11-14T16:22:51.008Z,7.50
2017-11-14T16:25:16.988Z,7.50
2017-11-14T16:27:42.972Z,7.40
2017-11-14T16:30:08.940Z,7.40
2017-11-14T16:32:34.888Z,7.40
2017-11-14T16:35:00.924Z,7.40
2017-11-14T16:37:27.772Z,7.30
2017-11-14T16:39:53.771Z,7.30
2017-11-14T16:42:19.753Z,7.30
2017-11-14T16:44:45.719Z,7.30
2017-11-14T16:47:14.305Z,7.40
2017-11-14T16:49:40.297Z,7.20
2017-11-14T16:52:06.272Z,7.20
2017-11-14T16:54:32.293Z,7.20
2017-11-14T16:56:58.240Z,7.10
2017-11-14T16:59:24.204Z,7.10
2017-11-14T17:01:51.060Z,7.00
2017-11-14T17:04:17.104Z,6.90
2017-11-14T17:06:43.035Z,6.90
2017-11-14T17:09:09.165Z,6.90
2017-11-14T17:11:35.207Z,6.90
2017-11-14T17:14:02.881Z,6.80
2017-11-14T17:16:30.353Z,6.80
2017-11-14T17:18:56.395Z,6.70
2017-11-14T17:21:22.415Z,6.80
2017-11-14T17:23:49.067Z,6.70
2017-11-14T17:26:15.081Z,6.70
2017-11-14T17:28:41.088Z,6.70
2017-11-14T17:31:08.585Z,6.70
2017-11-14T17:33:34.564Z,6.80
2017-11-14T17:36:00.520Z,6.80
2017-11-14T17:38:26.532Z,6.70
2017-11-14T17:40:52.551Z,6.70
2017-11-14T17:43:18.620Z,6.80
2017-11-14T17:45:45.193Z,6.80
2017-11-14T17:48:11.504Z,6.90
2017-11-14T17:50:37.852Z,6.90
2017-11-14T17:53:03.792Z,6.90
2017-11-14T17:55:29.804Z,6.90
2017-11-14T17:57:55.757Z,6.90
2017-11-14T18:00:21.757Z,6.90
2017-11-14T18:02:47.665Z,6.90
2017-11-14T18:05:13.617Z,7.00
2017-11-14T18:07:39.544Z,7.00
2017-11-14T18:10:05.487Z,6.80
2017-11-14T18:12:31.552Z,6.80
2017-11-14T18:14:58.999Z,6.80
2017-11-14T18:17:25.927Z,6.60
2017-11-14T18:19:51.908Z,6.50
2017-11-14T18:22:17.863Z,6.60
2017-11-14T18:24:45.100Z,6.60
2017-11-14T18:27:11.034Z,6.50
2017-11-14T18:29:36.974Z,6.60
2017-11-14T18:32:02.990Z,6.50
2017-11-14T18:34:29.171Z,6.60
2017-11-14T18:36:55.089Z,6.50
2017-11-14T18:39:21.067Z,6.60
2017-11-14T18:41:47.257Z,6.60
2017-11-14T18:44:15.017Z,6.50
2017-11-14T18:46:41.702Z,6.50
2017-11-14T18:49:07.686Z,6.50
2017-11-14T18:51:36.562Z,6.40
2017-11-14T18:54:05.553Z,6.40
2017-11-14T18:56:31.576Z,6.30
2017-11-14T18:58:59.137Z,6.50
2017-11-14T19:01:26.093Z,6.60
2017-11-14T19:03:53.892Z,6.70
2017-11-14T19:06:21.214Z,6.60
2017-11-14T19:08:47.695Z,6.70
2017-11-14T19:11:17.766Z,6.50
2017-11-14T19:13:43.722Z,6.40
2017-11-14T19:16:10.726Z,6.30
2017-11-14T19:18:36.700Z,6.30
2017-11-14T19:21:02.970Z,6.30
2017-11-14T19:23:29.623Z,6.30
2017-11-14T19:25:55.824Z,6.30
2017-11-14T19:28:22.001Z,6.40
2017-11-14T19:30:50.278Z,6.40
2017-11-14T19:33:17.009Z,6.30
2017-11-14T19:35:42.977Z,6.20
2017-11-14T19:38:09.813Z,6.20
2017-11-14T19:40:35.761Z,6.20
2017-11-14T19:43:01.769Z,6.20
2017-11-14T19:45:27.801Z,6.10
2017-11-14T19:47:54.084Z,6.20
2017-11-14T19:50:26.215Z,6.20
2017-11-14T19:52:52.993Z,6.30
2017-11-14T19:55:21.669Z,6.20
2017-11-14T19:57:47.647Z,6.30
2017-11-14T20:00:13.660Z,6.40
2017-11-14T20:02:39.849Z,6.40
2017-11-14T20:05:05.857Z,6.40
2017-11-14T20:07:32.969Z,6.40
2017-11-14T20:10:00.929Z,6.40
2017-11-14T20:12:27.972Z,6.30
2017-11-14T20:14:54.149Z,6.30
2017-11-14T20:17:21.264Z,6.40
2017-11-14T20:19:48.441Z,6.40
2017-11-14T20:22:17.900Z,6.30
2017-11-14T20:24:44.402Z,6.20
2017-11-14T20:27:10.676Z,6.20
2017-11-14T20:29:44.342Z,6.20
2017-11-14T20:32:12.213Z,6.10
2017-11-14T20:34:40.863Z,6.10
2017-11-14T20:39:39.254Z,6.00
2017-11-14T20:44:36.175Z,6.00
2017-11-14T20:52:04.419Z,6.00
2017-11-14T20:54:33.243Z,6.00
2017-11-14T20:57:00.880Z,5.90
2017-11-14T20:59:28.796Z,5.90
2017-11-14T21:01:55.442Z,5.90
2017-11-14T21:04:22.717Z,5.90
2017-11-14T21:06:48.861Z,5.90
2017-11-14T21:09:17.528Z,5.80
2017-11-14T21:11:43.568Z,5.80
2017-11-14T21:14:10.596Z,5.80
2017-11-14T21:19:10.023Z,5.70
2017-11-14T21:24:08.747Z,5.90
2017-11-14T21:26:47.535Z,5.80
2017-11-14T21:29:13.702Z,5.80
2017-11-14T21:34:15.662Z,5.80
2017-11-14T21:36:44.352Z,5.90
2017-11-14T21:39:10.371Z,6.00
2017-11-14T21:41:36.435Z,5.80
2017-11-14T21:44:03.235Z,5.80
2017-11-14T21:46:29.345Z,5.70
2017-11-14T21:48:55.381Z,5.80
2017-11-14T21:51:22.046Z,5.80
2017-11-14T21:53:49.083Z,5.70
2017-11-14T21:56:15.380Z,5.70
2017-11-14T21:58:41.989Z,5.70
2017-11-14T22:01:08.947Z,5.70
2017-11-14T22:03:34.989Z,5.50
2017-11-14T22:06:01.041Z,5.80
2017-11-14T22:08:27.357Z,5.70
2017-11-14T22:10:53.410Z,5.70
2017-11-14T22:13:21.848Z,5.70
2017-11-14T22:15:48.248Z,5.60
2017-11-14T22:18:15.038Z,5.70
2017-11-14T22:20:41.045Z,5.70
2017-11-14T22:23:07.821Z,5.60
2017-11-14T22:25:34.043Z,5.60
2017-11-14T22:28:00.119Z,5.70
2017-11-14T22:30:26.088Z,5.70
2017-11-14T22:32:52.078Z,5.70
2017-11-14T22:35:18.104Z,5.80
2017-11-14T22:37:44.946Z,5.80
2017-11-14T22:40:10.913Z,5.80
2017-11-14T22:42:36.936Z,5.80
2017-11-14T22:45:23.288Z,5.70
2017-11-14T22:47:49.212Z,5.60
2017-11-14T22:50:15.246Z,5.60
2017-11-14T22:52:41.208Z,5.60
2017-11-14T22:55:07.893Z,5.70
2017-11-14T22:57:44.125Z,5.70
2017-11-14T23:03:08.306Z,5.70
2017-11-14T23:08:19.473Z,5.80
2017-11-14T23:10:50.342Z,5.80
2017-11-14T23:13:16.444Z,5.90
2017-11-14T23:15:42.374Z,5.70
2017-11-14T23:18:08.352Z,5.70
2017-11-14T23:20:34.399Z,5.60
2017-11-14T23:23:01.132Z,5.70
2017-11-14T23:25:27.325Z,5.80
2017-11-14T23:27:53.389Z,5.70
2017-11-14T23:30:19.421Z,5.70
2017-11-14T23:32:45.451Z,5.60
2017-11-14T23:35:11.460Z,5.60
2017-11-14T23:37:37.446Z,5.60
2017-11-14T23:40:03.405Z,5.60
2017-11-14T23:42:29.374Z,5.60
2017-11-14T23:44:55.570Z,5.70
2017-11-14T23:47:21.582Z,5.70
2017-11-14T23:49:47.595Z,5.70
2017-11-14T23:52:13.569Z,5.60
2017-11-14T23:54:39.500Z,5.60
2017-11-14T23:57:05.744Z,5.60
2017-11-14T23:59:31.810Z,5.50
